Time,TemperatureF,DewpointF,PressureIn,WindDirection,WindDirectionDegrees,WindSpeedMPH,WindSpeedGustMPH,Humidity,HourlyPrecipIn,Conditions,Clouds,dailyrainin,SoftwareType,DateUTC
2013-07-19 00:13:00,77.0,75.0,29.97,NNE,17,0.0,0.0,93,0.00,,,0.00,weatherlink.com 1.10,2013-07-19 04:13:00,
2013-07-19 00:29:00,77.0,75.0,29.97,NNE,17,0.0,0.0,92,0.00,,,0.00,weatherlink.com 1.10,2013-07-19 04:29:00,
2013-07-19 00:44:00,76.9,75.0,29.97,NNE,17,0.0,0.0,92,0.00,,,0.00,weatherlink.com 1.10,2013-07-19 04:44:00,
2013-07-19 00:59:00,76.8,74.0,29.97,NNE,17,0.0,0.0,92,0.00,,,0.00,weatherlink.com 1.10,2013-07-19 04:59:00,
2013-07-19 01:14:00,76.6,74.0,29.97,NNE,17,0.0,0.0,92,0.00,,,0.00,weatherlink.com 1.10,2013-07-19 05:14:00,
2013-07-19 01:29:00,76.5,74.0,29.96,NE,38,0.0,0.0,93,0.00,,,0.00,weatherlink.com 1.10,2013-07-19 05:29:00,
2013-07-19 01:44:00,76.3,74.0,29.96,SSW,198,0.0,1.0,93,0.00,,,0.00,weatherlink.com 1.10,2013-07-19 05:44:00,
2013-07-19 01:59:00,76.1,74.0,29.96,SSW,198,0.0,0.0,93,0.00,,,0.00,weatherlink.com 1.10,2013-07-19 05:59:00,
2013-07-19 02:14:00,75.9,74.0,29.95,SSW,198,0.0,0.0,94,0.00,,,0.00,weatherlink.com 1.10,2013-07-19 06:14:00,
2013-07-19 02:29:00,75.7,74.0,29.94,SSW,198,0.0,0.0,94,0.00,,,0.00,weatherlink.com 1.10,2013-07-19 06:29:00,
2013-07-19 02:44:00,75.5,74.0,29.94,SSW,198,0.0,0.0,94,0.00,,,0.00,weatherlink.com 1.10,2013-07-19 06:44:00,
2013-07-19 02:59:00,75.3,74.0,29.94,SSW,198,0.0,0.0,95,0.00,,,0.00,weatherlink.com 1.10,2013-07-19 06:59:00,
2013-07-19 03:14:00,75.1,74.0,29.93,SSW,198,0.0,0.0,95,0.00,,,0.00,weatherlink.com 1.10,2013-07-19 07:14:00,
2013-07-19 03:29:00,74.9,73.0,29.93,SSW,198,0.0,0.0,95,0.00,,,0.00,weatherlink.com 1.10,2013-07-19 07:29:00,
2013-07-19 03:44:00,74.8,73.0,29.93,SSW,198,0.0,0.0,95,0.00,,,0.00,weatherlink.com 1.10,2013-07-19 07:44:00,
2013-07-19 03:59:00,74.7,74.0,29.93,SSW,198,0.0,0.0,96,0.00,,,0.00,weatherlink.com 1.10,2013-07-19 07:59:00,
2013-07-19 04:14:00,74.7,74.0,29.92,SSW,198,0.0,0.0,96,0.00,,,0.00,weatherlink.com 1.10,2013-07-19 08:14:00,
2013-07-19 04:29:00,74.7,74.0,29.92,SSW,198,0.0,0.0,96,0.00,,,0.00,weatherlink.com 1.10,2013-07-19 08:29:00,
2013-07-19 04:44:00,74.6,73.0,29.91,SSW,198,0.0,0.0,96,0.00,,,0.00,weatherlink.com 1.10,2013-07-19 08:44:00,
2013-07-19 04:59:00,74.4,73.0,29.91,North,355,0.0,2.0,96,0.00,,,0.00,weatherlink.com 1.10,2013-07-19 08:59:00,
2013-07-19 05:14:00,74.3,73.0,29.91,North,349,0.0,0.0,96,0.00,,,0.00,weatherlink.com 1.10,2013-07-19 09:14:00,
2013-07-19 05:29:00,74.1,73.0,29.91,North,355,0.0,0.0,96,0.00,,,0.00,weatherlink.com 1.10,2013-07-19 09:29:00,
2013-07-19 05:44:00,73.9,73.0,29.91,North,355,0.0,0.0,96,0.00,,,0.00,weatherlink.com 1.10,2013-07-19 09:44:00,
2013-07-19 05:59:00,73.9,73.0,29.91,North,355,0.0,0.0,96,0.00,,,0.00,weatherlink.com 1.10,2013-07-19 09:59:00,
2013-07-19 06:14:00,73.8,73.0,29.91,WSW,257,1.0,1.0,96,0.00,,,0.00,weatherlink.com 1.10,2013-07-19 10:14:00,
2013-07-19 06:29:00,73.7,73.0,29.91,WSW,257,0.0,0.0,96,0.00,,,0.00,weatherlink.com 1.10,2013-07-19 10:29:00,
2013-07-19 06:44:00,73.7,73.0,29.91,South,182,0.0,1.0,97,0.00,,,0.00,weatherlink.com 1.10,2013-07-19 10:44:00,
2013-07-19 06:59:00,73.8,73.0,29.91,SW,234,0.0,1.0,97,0.00,,,0.00,weatherlink.com 1.10,2013-07-19 10:59:00,
2013-07-19 07:14:00,73.9,73.0,29.91,SW,224,0.0,2.0,96,0.00,,,0.00,weatherlink.com 1.10,2013-07-19 11:14:00,
2013-07-19 07:29:00,74.0,73.0,29.91,SSW,200,0.0,0.0,96,0.00,,,0.00,weatherlink.com 1.10,2013-07-19 11:29:00,
2013-07-19 07:44:00,74.2,73.0,29.92,SW,214,0.0,1.0,96,0.00,,,0.00,weatherlink.com 1.10,2013-07-19 11:44:00,
2013-07-19 07:59:00,74.5,73.0,29.91,WSW,244,0.0,2.0,96,0.00,,,0.00,weatherlink.com 1.10,2013-07-19 11:59:00,
2013-07-19 08:14:00,74.9,74.0,29.92,South,181,0.0,2.0,96,0.00,,,0.00,weatherlink.com 1.10,2013-07-19 12:14:00,
2013-07-19 08:29:00,75.4,74.0,29.91,ENE,61,1.0,2.0,95,0.00,,,0.00,weatherlink.com 1.10,2013-07-19 12:29:00,
2013-07-19 08:44:00,76.1,74.0,29.91,West,259,2.0,6.0,94,0.00,,,0.00,weatherlink.com 1.10,2013-07-19 12:44:00,
2013-07-19 08:59:00,76.9,75.0,29.91,WSW,240,2.0,5.0,93,0.00,,,0.00,weatherlink.com 1.10,2013-07-19 12:59:00,
2013-07-19 09:14:00,77.8,76.0,29.91,WSW,257,0.0,4.0,93,0.00,,,0.00,weatherlink.com 1.10,2013-07-19 13:14:00,
2013-07-19 09:30:00,78.4,76.0,29.92,WNW,294,2.0,5.0,92,0.00,,,0.00,weatherlink.com 1.10,2013-07-19 13:30:00,
2013-07-19 09:45:00,79.5,76.0,29.92,WSW,241,1.0,8.0,89,0.00,,,0.00,weatherlink.com 1.10,2013-07-19 13:45:00,
2013-07-19 10:00:00,80.5,77.0,29.92,NNE,17,0.0,7.0,88,0.00,,,0.00,weatherlink.com 1.10,2013-07-19 14:00:00,
2013-07-19 10:15:00,81.2,76.0,29.92,West,281,2.0,6.0,85,0.00,,,0.00,weatherlink.com 1.10,2013-07-19 14:15:00,
2013-07-19 10:30:00,82.0,77.0,29.91,SSE,155,2.0,11.0,85,0.00,,,0.00,weatherlink.com 1.10,2013-07-19 14:30:00,
2013-07-19 10:45:00,82.8,78.0,29.91,East,88,1.0,8.0,85,0.00,,,0.00,weatherlink.com 1.10,2013-07-19 14:45:00,
2013-07-19 11:00:00,83.5,78.0,29.91,WNW,298,5.0,8.0,83,0.00,,,0.00,weatherlink.com 1.10,2013-07-19 15:00:00,
2013-07-19 11:15:00,84.4,78.0,29.91,WNW,282,2.0,10.0,81,0.00,,,0.00,weatherlink.com 1.10,2013-07-19 15:15:00,
2013-07-19 11:30:00,85.6,79.0,29.91,West,281,1.0,9.0,80,0.00,,,0.00,weatherlink.com 1.10,2013-07-19 15:30:00,
2013-07-19 11:45:00,87.2,79.0,29.90,WSW,250,2.0,14.0,77,0.00,,,0.00,weatherlink.com 1.10,2013-07-19 15:45:00,
2013-07-19 12:00:00,88.5,81.0,29.90,SW,229,2.0,11.0,78,0.00,,,0.00,weatherlink.com 1.10,2013-07-19 16:00:00,
2013-07-19 12:15:00,89.6,80.0,29.89,WNW,288,1.0,10.0,73,0.00,,,0.00,weatherlink.com 1.10,2013-07-19 16:15:00,
2013-07-19 12:30:00,89.7,80.0,29.89,NE,46,3.0,8.0,72,0.00,,,0.00,weatherlink.com 1.10,2013-07-19 16:30:00,
2013-07-19 12:45:00,90.0,80.0,29.88,SW,229,6.0,14.0,72,0.00,,,0.00,weatherlink.com 1.10,2013-07-19 16:45:00,
2013-07-19 13:00:00,90.5,81.0,29.88,West,263,2.0,10.0,73,0.00,,,0.00,weatherlink.com 1.10,2013-07-19 17:00:00,
2013-07-19 13:15:00,91.2,80.0,29.87,SSW,209,4.0,7.0,69,0.00,,,0.00,weatherlink.com 1.10,2013-07-19 17:15:00,
2013-07-19 13:30:00,91.6,79.0,29.86,WNW,282,2.0,6.0,67,0.00,,,0.00,weatherlink.com 1.10,2013-07-19 17:30:00,
2013-07-19 13:45:00,92.0,82.0,29.86,NE,44,1.0,8.0,72,0.00,,,0.00,weatherlink.com 1.10,2013-07-19 17:45:00,
2013-07-19 14:00:00,92.5,82.0,29.85,West,263,1.0,5.0,71,0.00,,,0.00,weatherlink.com 1.10,2013-07-19 18:00:00,
2013-07-19 14:15:00,92.7,81.0,29.84,NW,314,1.0,6.0,68,0.00,,,0.00,weatherlink.com 1.10,2013-07-19 18:15:00,
2013-07-19 14:31:00,93.2,81.0,29.84,NW,308,2.0,8.0,68,0.00,,,0.00,weatherlink.com 1.10,2013-07-19 18:31:00,
2013-07-19 14:46:00,93.9,81.0,29.84,South,177,1.0,6.0,66,0.00,,,0.00,weatherlink.com 1.10,2013-07-19 18:46:00,
2013-07-19 15:01:00,92.5,78.0,29.83,West,277,1.0,6.0,63,0.00,,,0.00,weatherlink.com 1.10,2013-07-19 19:01:00,
2013-07-19 15:16:00,92.4,80.0,29.82,West,264,1.0,9.0,67,0.00,,,0.00,weatherlink.com 1.10,2013-07-19 19:16:00,
2013-07-19 15:31:00,92.8,79.0,29.81,SW,231,0.0,7.0,65,0.00,,,0.00,weatherlink.com 1.10,2013-07-19 19:31:00,
2013-07-19 15:46:00,93.0,81.0,29.81,WSW,254,3.0,5.0,68,0.00,,,0.00,weatherlink.com 1.10,2013-07-19 19:46:00,
2013-07-19 16:01:00,92.6,80.0,29.81,WSW,248,1.0,12.0,67,0.00,,,0.00,weatherlink.com 1.10,2013-07-19 20:01:00,
2013-07-19 16:16:00,92.9,79.0,29.80,WSW,242,2.0,7.0,65,0.00,,,0.00,weatherlink.com 1.10,2013-07-19 20:16:00,
2013-07-19 16:31:00,92.7,80.0,29.80,SW,232,5.0,9.0,67,0.00,,,0.00,weatherlink.com 1.10,2013-07-19 20:31:00,
2013-07-19 16:48:00,92.0,80.0,29.79,WSW,250,1.0,6.0,67,0.00,,,0.00,weatherlink.com 1.10,2013-07-19 20:48:00,
2013-07-19 17:01:00,92.0,79.0,29.79,WSW,243,2.0,7.0,66,0.00,,,0.00,weatherlink.com 1.10,2013-07-19 21:01:00,
2013-07-19 17:16:00,91.4,79.0,29.78,WNW,298,3.0,5.0,67,0.00,,,0.00,weatherlink.com 1.10,2013-07-19 21:16:00,
2013-07-19 17:31:00,90.3,78.0,29.78,WSW,252,4.0,9.0,67,0.00,,,0.00,weatherlink.com 1.10,2013-07-19 21:31:00,
2013-07-19 17:46:00,89.5,78.0,29.77,West,267,2.0,8.0,69,0.00,,,0.00,weatherlink.com 1.10,2013-07-19 21:46:00,
2013-07-19 18:01:00,88.8,79.0,29.77,WNW,300,0.0,4.0,72,0.00,,,0.00,weatherlink.com 1.10,2013-07-19 22:01:00,
2013-07-19 18:16:00,87.9,78.0,29.77,SE,138,0.0,6.0,73,0.00,,,0.00,weatherlink.com 1.10,2013-07-19 22:16:00,
2013-07-19 18:31:00,87.2,78.0,29.77,WNW,294,3.0,5.0,73,0.00,,,0.00,weatherlink.com 1.10,2013-07-19 22:31:00,
2013-07-19 18:46:00,86.7,76.0,29.77,SW,219,1.0,12.0,71,0.00,,,0.00,weatherlink.com 1.10,2013-07-19 22:46:00,
2013-07-19 19:01:00,86.4,77.0,29.77,SSE,165,0.0,5.0,74,0.00,,,0.00,weatherlink.com 1.10,2013-07-19 23:01:00,
2013-07-19 19:16:00,85.9,76.0,29.76,SE,124,1.0,6.0,72,0.00,,,0.00,weatherlink.com 1.10,2013-07-19 23:16:00,
2013-07-19 19:31:00,85.4,76.0,29.77,SW,224,0.0,4.0,74,0.00,,,0.00,weatherlink.com 1.10,2013-07-19 23:31:00,
2013-07-19 19:46:00,85.1,77.0,29.77,SSE,157,1.0,6.0,76,0.00,,,0.00,weatherlink.com 1.10,2013-07-19 23:46:00,
2013-07-19 20:01:00,84.6,76.0,29.77,South,178,0.0,4.0,76,0.00,,,0.00,weatherlink.com 1.10,2013-07-20 00:01:00,
2013-07-19 20:16:00,84.2,76.0,29.77,WSW,239,0.0,3.0,77,0.00,,,0.00,weatherlink.com 1.10,2013-07-20 00:16:00,
2013-07-19 20:31:00,83.5,76.0,29.77,ENE,75,1.0,4.0,79,0.00,,,0.00,weatherlink.com 1.10,2013-07-20 00:31:00,
2013-07-19 20:46:00,82.9,76.0,29.78,SW,218,0.0,2.0,80,0.00,,,0.00,weatherlink.com 1.10,2013-07-20 00:46:00,
2013-07-19 21:01:00,82.4,76.0,29.78,SSW,211,0.0,1.0,81,0.00,,,0.00,weatherlink.com 1.10,2013-07-20 01:01:00,
2013-07-19 21:16:00,81.8,76.0,29.78,SSW,198,0.0,1.0,83,0.00,,,0.00,weatherlink.com 1.10,2013-07-20 01:16:00,
2013-07-19 21:31:00,81.5,76.0,29.77,SSW,202,0.0,2.0,84,0.00,,,0.00,weatherlink.com 1.10,2013-07-20 01:31:00,
2013-07-19 21:46:00,81.3,76.0,29.77,WNW,287,0.0,2.0,84,0.00,,,0.00,weatherlink.com 1.10,2013-07-20 01:46:00,
2013-07-19 22:01:00,81.0,76.0,29.77,SW,220,0.0,2.0,85,0.00,,,0.00,weatherlink.com 1.10,2013-07-20 02:01:00,
2013-07-19 22:16:00,80.8,76.0,29.77,WSW,245,2.0,3.0,85,0.00,,,0.00,weatherlink.com 1.10,2013-07-20 02:16:00,
2013-07-19 22:31:00,80.6,76.0,29.77,SSW,193,0.0,3.0,85,0.00,,,0.00,weatherlink.com 1.10,2013-07-20 02:31:00,
2013-07-19 22:46:00,80.4,76.0,29.77,ESE,115,0.0,7.0,85,0.00,,,0.00,weatherlink.com 1.10,2013-07-20 02:46:00,
2013-07-19 23:01:00,80.3,76.0,29.77,SW,232,0.0,4.0,85,0.00,,,0.00,weatherlink.com 1.10,2013-07-20 03:01:00,
2013-07-19 23:16:00,80.1,75.0,29.77,North,355,0.0,4.0,84,0.00,,,0.00,weatherlink.com 1.10,2013-07-20 03:16:00,
2013-07-19 23:31:00,79.9,75.0,29.78,SW,218,1.0,5.0,85,0.00,,,0.00,weatherlink.com 1.10,2013-07-20 03:31:00,
2013-07-19 23:46:00,79.7,75.0,29.78,SW,232,0.0,8.0,84,0.00,,,0.00,weatherlink.com 1.10,2013-07-20 03:46:00,